PWSweather.com
Personal Weather Stations
Station Observations
ZBYSOV
ZbysovCZ 66411

ZbysovCZ 66411

Lat: 49.1578064, Lon: 16.3474598

Elevation: 350

Station Type: Davis Vantage Pro 2

http://www.pocasizbysov.info/

High Low Average
Temperature 42.4°F5.8°C 28.2°F-2.1°C 34.0°F1.1°C
Dew Point 41.9°F5.5°C 27.5°F-2.5°C 33.1°F0.6°C
Winds 5.5 mph 8.9 kmh Calm Calm 1.0 mph S1.6 kmh S
Wind Gusts 7.0 mph11.3 kmh -- 1.0 mph1.6 kmh
Humidity 98% 93% 96%
Pressure 29.91 in1012.9 mb 29.78 in1008.5 mb -
Precipitation 0.06 in1.5 mm - -
Hour Temp Dew Point Humidity Winds Wind Gusts Pressure Precip Precip Rate Daily Precip Total
12:16 AM 37.2°F2.9°C 35.7°F2.1°C 94% Calm Calm -- 29.82 in1009.8 mb 0.00 in0.0 mm 0.00 in0.0 mm 0.06 in1.5 mm
12:31 AM 37.2°F2.9°C 35.7°F2.1°C 94% Calm Calm -- 29.82 in1009.8 mb 0.00 in0.0 mm 0.00 in0.0 mm 0.06 in1.5 mm
12:46 AM 36.7°F2.6°C 35.1°F1.7°C 94% Calm Calm -- 29.80 in1009.1 mb 0.00 in0.0 mm 0.00 in0.0 mm 0.00 in0.0 mm
01:01 AM 37.2°F2.9°C 35.7°F2.1°C 94% Calm Calm -- 29.82 in1009.8 mb 0.00 in0.0 mm 0.00 in0.0 mm 0.06 in1.5 mm
01:16 AM 36.5°F2.5°C 34.9°F1.6°C 94% Calm Calm -- 29.81 in1009.5 mb 0.06 in1.5 mm 0.22 in5.6 mm 0.06 in1.5 mm
01:31 AM 36.1°F2.3°C 34.3°F1.3°C 93% Calm Calm -- 29.81 in1009.5 mb 0.00 in0.0 mm 0.00 in0.0 mm 0.06 in1.5 mm
01:46 AM 35.6°F2.0°C 33.8°F1.0°C 93% Calm Calm -- 29.82 in1009.8 mb 0.06 in1.5 mm 0.22 in5.6 mm 0.11 in2.8 mm
02:01 AM 37.2°F2.9°C 35.7°F2.1°C 94% Calm Calm -- 29.82 in1009.8 mb 0.00 in0.0 mm 0.00 in0.0 mm 0.06 in1.5 mm
02:16 AM 35.4°F1.9°C 34.1°F1.2°C 95% Calm Calm -- 29.80 in1009.1 mb 0.06 in1.5 mm 0.22 in5.6 mm 0.17 in4.3 mm
02:31 AM 37.8°F3.2°C 37.0°F2.8°C 97% Calm Calm -- 29.91 in1012.9 mb 0.00 in0.0 mm 0.00 in0.0 mm 0.06 in1.5 mm
02:46 AM 34.9°F1.6°C 33.3°F0.7°C 94% Calm Calm -- 29.80 in1009.1 mb 0.00 in0.0 mm 0.00 in0.0 mm 0.17 in4.3 mm
03:01 AM 39.6°F4.2°C 38.8°F3.8°C 97% Calm Calm -- 29.91 in1012.9 mb 0.00 in0.0 mm 0.00 in0.0 mm 0.01 in0.3 mm
03:46 AM 33.1°F0.6°C 31.5°F-0.3°C 94% Calm Calm -- 29.80 in1009.1 mb 0.01 in0.3 mm 0.01 in0.3 mm 0.17 in4.3 mm
04:01 AM 32.7°F0.4°C 31.5°F-0.3°C 95% Calm Calm -- 29.80 in1009.1 mb 0.00 in0.0 mm 0.00 in0.0 mm 0.17 in4.3 mm
04:16 AM 32.7°F0.4°C 31.5°F-0.3°C 95% Calm Calm -- 29.80 in1009.1 mb 0.00 in0.0 mm 0.00 in0.0 mm 0.17 in4.3 mm
04:31 AM 32.7°F0.4°C 31.5°F-0.3°C 95% Calm Calm -- 29.80 in1009.1 mb 0.00 in0.0 mm 0.00 in0.0 mm 0.17 in4.3 mm
05:01 AM 37.2°F2.9°C 35.7°F2.1°C 94% Calm Calm -- 29.82 in1009.8 mb 0.00 in0.0 mm 0.00 in0.0 mm 0.06 in1.5 mm
05:16 AM 32.5°F0.3°C 31.3°F-0.4°C 95% Calm Calm -- 29.80 in1009.1 mb 0.00 in0.0 mm 0.00 in0.0 mm 0.17 in4.3 mm
05:31 AM 32.7°F0.4°C 31.7°F-0.2°C 96% Calm Calm -- 29.80 in1009.1 mb 0.00 in0.0 mm 0.00 in0.0 mm 0.17 in4.3 mm
05:46 AM 32.7°F0.4°C 31.7°F-0.2°C 96% Calm Calm -- 29.80 in1009.1 mb 0.00 in0.0 mm 0.00 in0.0 mm 0.17 in4.3 mm
06:01 AM 33.1°F0.6°C 32.1°F0.1°C 96% Calm Calm -- 29.80 in1009.1 mb 0.00 in0.0 mm 0.00 in0.0 mm 0.17 in4.3 mm
06:16 AM 33.1°F0.6°C 32.1°F0.1°C 96% Calm Calm -- 29.80 in1009.1 mb 0.00 in0.0 mm 0.00 in0.0 mm 0.17 in4.3 mm
06:31 AM 33.1°F0.6°C 32.1°F0.1°C 96% Calm Calm -- 29.80 in1009.1 mb 0.00 in0.0 mm 0.00 in0.0 mm 0.17 in4.3 mm
06:46 AM 33.3°F0.7°C 32.2°F0.1°C 96% Calm Calm -- 29.80 in1009.1 mb 0.00 in0.0 mm 0.00 in0.0 mm 0.17 in4.3 mm
07:01 AM 37.2°F2.9°C 35.7°F2.1°C 94% Calm Calm -- 29.82 in1009.8 mb 0.06 in1.5 mm 0.08 in2.0 mm 0.06 in1.5 mm
07:15 AM 34.0°F1.1°C 33.0°F0.6°C 96% Calm Calm -- 29.80 in1009.1 mb 0.00 in0.0 mm 0.00 in0.0 mm 0.24 in6.1 mm
07:31 AM 42.4°F5.8°C 41.9°F5.5°C 98% 4.0 mph NE6.4 kmh NE 5.0 mph8.0 kmh 29.89 in1012.2 mb 0.00 in0.0 mm 0.00 in0.0 mm 0.24 in6.1 mm
07:46 AM 34.2°F1.2°C 33.1°F0.6°C 96% 4.2 mph SSW6.8 kmh SSW 5.0 mph8.0 kmh 29.82 in1009.8 mb 0.00 in0.0 mm 0.00 in0.0 mm 0.24 in6.1 mm
08:01 AM 34.2°F1.2°C 33.1°F0.6°C 96% 2.8 mph SSW4.5 kmh SSW 4.0 mph6.4 kmh 29.83 in1010.2 mb 0.00 in0.0 mm 0.00 in0.0 mm 0.24 in6.1 mm
08:16 AM 34.3°F1.3°C 33.3°F0.7°C 96% 1.4 mph SW2.3 kmh SW 2.0 mph3.2 kmh 29.83 in1010.2 mb 0.00 in0.0 mm 0.00 in0.0 mm 0.24 in6.1 mm
08:31 AM 34.3°F1.3°C 33.3°F0.7°C 96% Calm Calm -- 29.83 in1010.2 mb 0.00 in0.0 mm 0.00 in0.0 mm 0.24 in6.1 mm
08:46 AM 34.5°F1.4°C 33.5°F0.8°C 96% Calm Calm -- 29.84 in1010.5 mb 0.00 in0.0 mm 0.00 in0.0 mm 0.24 in6.1 mm
09:01 AM 34.5°F1.4°C 33.5°F0.8°C 96% Calm Calm -- 29.85 in1010.8 mb 0.00 in0.0 mm 0.00 in0.0 mm 0.24 in6.1 mm
09:16 AM 34.9°F1.6°C 34.1°F1.2°C 97% 4.3 mph SW6.9 kmh SW 6.0 mph9.7 kmh 29.85 in1010.8 mb 0.00 in0.0 mm 0.00 in0.0 mm 0.24 in6.1 mm
09:31 AM 34.9°F1.6°C 34.1°F1.2°C 97% 0.3 mph SSW0.5 kmh SSW 2.0 mph3.2 kmh 29.85 in1010.8 mb 0.00 in0.0 mm 0.00 in0.0 mm 0.24 in6.1 mm
09:46 AM 35.1°F1.7°C 34.3°F1.3°C 97% 2.6 mph SW4.2 kmh SW 3.0 mph4.8 kmh 29.86 in1011.2 mb 0.00 in0.0 mm 0.00 in0.0 mm 0.24 in6.1 mm
10:01 AM 35.1°F1.7°C 34.3°F1.3°C 97% 5.5 mph S8.9 kmh S 7.0 mph11.3 kmh 29.86 in1011.2 mb 0.00 in0.0 mm 0.00 in0.0 mm 0.24 in6.1 mm
10:16 AM 34.9°F1.6°C 34.1°F1.2°C 97% 3.2 mph SW5.1 kmh SW 5.0 mph8.0 kmh 29.87 in1011.5 mb 0.00 in0.0 mm 0.00 in0.0 mm 0.24 in6.1 mm
10:31 AM 34.9°F1.6°C 34.1°F1.2°C 97% Calm Calm -- 29.87 in1011.5 mb 0.00 in0.0 mm 0.00 in0.0 mm 0.24 in6.1 mm
10:46 AM 35.1°F1.7°C 34.3°F1.3°C 97% Calm Calm -- 29.86 in1011.2 mb 0.00 in0.0 mm 0.00 in0.0 mm 0.24 in6.1 mm
11:01 AM 34.9°F1.6°C 34.1°F1.2°C 97% Calm Calm -- 29.86 in1011.2 mb 0.00 in0.0 mm 0.00 in0.0 mm 0.24 in6.1 mm
11:16 AM 34.9°F1.6°C 34.1°F1.2°C 97% Calm Calm -- 29.87 in1011.5 mb 0.00 in0.0 mm 0.00 in0.0 mm 0.24 in6.1 mm
11:31 AM 34.9°F1.6°C 34.1°F1.2°C 97% 2.3 mph S3.7 kmh S 4.0 mph6.4 kmh 29.88 in1011.9 mb 0.00 in0.0 mm 0.00 in0.0 mm 0.24 in6.1 mm
11:46 AM 34.9°F1.6°C 34.1°F1.2°C 97% 3.0 mph S4.8 kmh S 5.0 mph8.0 kmh 29.87 in1011.5 mb 0.00 in0.0 mm 0.00 in0.0 mm 0.24 in6.1 mm
12:01 PM 35.1°F1.7°C 34.3°F1.3°C 97% Calm Calm -- 29.87 in1011.5 mb 0.00 in0.0 mm 0.00 in0.0 mm 0.24 in6.1 mm
12:16 PM 35.4°F1.9°C 34.7°F1.5°C 97% Calm Calm -- 29.86 in1011.2 mb 0.00 in0.0 mm 0.00 in0.0 mm 0.24 in6.1 mm
12:31 PM 35.8°F2.1°C 35.0°F1.7°C 97% Calm Calm -- 29.85 in1010.8 mb 0.00 in0.0 mm 0.00 in0.0 mm 0.24 in6.1 mm
12:46 PM 35.8°F2.1°C 35.0°F1.7°C 97% Calm Calm -- 29.85 in1010.8 mb 0.00 in0.0 mm 0.00 in0.0 mm 0.24 in6.1 mm
01:01 PM 35.8°F2.1°C 35.0°F1.7°C 97% Calm Calm -- 29.84 in1010.5 mb 0.00 in0.0 mm 0.00 in0.0 mm 0.24 in6.1 mm
01:16 PM 35.6°F2.0°C 34.8°F1.6°C 97% Calm Calm -- 29.84 in1010.5 mb 0.00 in0.0 mm 0.00 in0.0 mm 0.24 in6.1 mm
01:31 PM 35.4°F1.9°C 34.7°F1.5°C 97% 1.4 mph SSE2.3 kmh SSE 3.0 mph4.8 kmh 29.84 in1010.5 mb 0.00 in0.0 mm 0.00 in0.0 mm 0.24 in6.1 mm
01:46 PM 35.4°F1.9°C 34.7°F1.5°C 97% Calm Calm -- 29.84 in1010.5 mb 0.00 in0.0 mm 0.00 in0.0 mm 0.24 in6.1 mm
02:01 PM 35.2°F1.8°C 34.5°F1.4°C 97% Calm Calm -- 29.83 in1010.2 mb 0.00 in0.0 mm 0.00 in0.0 mm 0.24 in6.1 mm
02:16 PM 35.2°F1.8°C 34.5°F1.4°C 97% Calm Calm -- 29.83 in1010.2 mb 0.00 in0.0 mm 0.00 in0.0 mm 0.24 in6.1 mm
02:31 PM 35.2°F1.8°C 34.5°F1.4°C 97% Calm Calm -- 29.82 in1009.8 mb 0.00 in0.0 mm 0.00 in0.0 mm 0.24 in6.1 mm
02:46 PM 35.2°F1.8°C 34.5°F1.4°C 97% Calm Calm -- 29.82 in1009.8 mb 0.00 in0.0 mm 0.00 in0.0 mm 0.24 in6.1 mm
03:01 PM 35.4°F1.9°C 34.7°F1.5°C 97% Calm Calm -- 29.83 in1010.2 mb 0.00 in0.0 mm 0.00 in0.0 mm 0.24 in6.1 mm
03:16 PM 35.4°F1.9°C 34.7°F1.5°C 97% Calm Calm -- 29.83 in1010.2 mb 0.00 in0.0 mm 0.00 in0.0 mm 0.24 in6.1 mm
03:31 PM 35.4°F1.9°C 34.7°F1.5°C 97% Calm Calm -- 29.83 in1010.2 mb 0.00 in0.0 mm 0.00 in0.0 mm 0.24 in6.1 mm
03:45 PM 35.4°F1.9°C 34.7°F1.5°C 97% Calm Calm -- 29.83 in1010.2 mb 0.00 in0.0 mm 0.00 in0.0 mm 0.24 in6.1 mm
04:00 PM 35.2°F1.8°C 34.5°F1.4°C 97% Calm Calm -- 29.82 in1009.8 mb 0.00 in0.0 mm 0.00 in0.0 mm 0.24 in6.1 mm
04:30 PM 35.1°F1.7°C 34.3°F1.3°C 97% Calm Calm -- 29.82 in1009.8 mb 0.00 in0.0 mm 0.00 in0.0 mm 0.24 in6.1 mm
04:45 PM 35.2°F1.8°C 34.5°F1.4°C 97% Calm Calm -- 29.81 in1009.5 mb 0.00 in0.0 mm 0.00 in0.0 mm 0.24 in6.1 mm
05:00 PM 35.2°F1.8°C 34.5°F1.4°C 97% Calm Calm -- 29.82 in1009.8 mb 0.00 in0.0 mm 0.00 in0.0 mm 0.24 in6.1 mm
05:15 PM 35.2°F1.8°C 34.5°F1.4°C 97% Calm Calm -- 29.82 in1009.8 mb 0.00 in0.0 mm 0.00 in0.0 mm 0.24 in6.1 mm
05:30 PM 35.1°F1.7°C 34.3°F1.3°C 97% Calm Calm -- 29.81 in1009.5 mb 0.00 in0.0 mm 0.00 in0.0 mm 0.24 in6.1 mm
05:45 PM 34.7°F1.5°C 33.9°F1.1°C 97% Calm Calm -- 29.80 in1009.1 mb 0.00 in0.0 mm 0.00 in0.0 mm 0.24 in6.1 mm
06:00 PM 34.2°F1.2°C 33.4°F0.8°C 97% Calm Calm -- 29.80 in1009.1 mb 0.00 in0.0 mm 0.00 in0.0 mm 0.24 in6.1 mm
06:15 PM 33.8°F1.0°C 33.0°F0.6°C 97% Calm Calm -- 29.80 in1009.1 mb 0.00 in0.0 mm 0.00 in0.0 mm 0.24 in6.1 mm
06:30 PM 33.6°F0.9°C 32.9°F0.5°C 97% Calm Calm -- 29.80 in1009.1 mb 0.00 in0.0 mm 0.00 in0.0 mm 0.24 in6.1 mm
06:45 PM 33.6°F0.9°C 32.9°F0.5°C 97% Calm Calm -- 29.80 in1009.1 mb 0.00 in0.0 mm 0.00 in0.0 mm 0.24 in6.1 mm
07:00 PM 33.1°F0.6°C 32.3°F0.2°C 97% Calm Calm -- 29.80 in1009.1 mb 0.00 in0.0 mm 0.00 in0.0 mm 0.24 in6.1 mm
07:15 PM 32.7°F0.4°C 32.0°F0.0°C 97% Calm Calm -- 29.80 in1009.1 mb 0.00 in0.0 mm 0.00 in0.0 mm 0.24 in6.1 mm
07:30 PM 32.4°F0.2°C 31.6°F-0.2°C 97% Calm Calm -- 29.79 in1008.8 mb 0.00 in0.0 mm 0.00 in0.0 mm 0.24 in6.1 mm
07:45 PM 32.2°F0.1°C 31.4°F-0.3°C 97% 3.6 mph N5.8 kmh N 5.0 mph8.0 kmh 29.79 in1008.8 mb 0.00 in0.0 mm 0.00 in0.0 mm 0.24 in6.1 mm
08:00 PM 30.9°F-0.6°C 29.9°F-1.2°C 96% 2.1 mph NE3.4 kmh NE 5.0 mph8.0 kmh 29.79 in1008.8 mb 0.00 in0.0 mm 0.00 in0.0 mm 0.24 in6.1 mm
08:15 PM 30.6°F-0.8°C 29.6°F-1.3°C 96% 4.3 mph N6.9 kmh N 7.0 mph11.3 kmh 29.79 in1008.8 mb 0.00 in0.0 mm 0.00 in0.0 mm 0.24 in6.1 mm
08:30 PM 30.2°F-1.0°C 29.2°F-1.6°C 96% 2.4 mph NNE3.9 kmh NNE 3.0 mph4.8 kmh 29.78 in1008.5 mb 0.00 in0.0 mm 0.00 in0.0 mm 0.24 in6.1 mm
08:45 PM 30.0°F-1.1°C 29.3°F-1.5°C 97% 2.1 mph N3.4 kmh N 3.0 mph4.8 kmh 29.79 in1008.8 mb 0.00 in0.0 mm 0.00 in0.0 mm 0.24 in6.1 mm
09:00 PM 29.8°F-1.2°C 28.8°F-1.8°C 96% 1.5 mph N2.4 kmh N 3.0 mph4.8 kmh 29.79 in1008.8 mb 0.00 in0.0 mm 0.00 in0.0 mm 0.24 in6.1 mm
09:15 PM 29.8°F-1.2°C 29.1°F-1.6°C 97% Calm Calm -- 29.78 in1008.5 mb 0.00 in0.0 mm 0.00 in0.0 mm 0.24 in6.1 mm
09:30 PM 29.7°F-1.3°C 28.9°F-1.7°C 97% 2.3 mph NNW3.7 kmh NNW 4.0 mph6.4 kmh 29.78 in1008.5 mb 0.00 in0.0 mm 0.00 in0.0 mm 0.24 in6.1 mm
09:45 PM 29.1°F-1.6°C 28.4°F-2.0°C 97% 2.9 mph NNW4.7 kmh NNW 4.0 mph6.4 kmh 29.78 in1008.5 mb 0.00 in0.0 mm 0.00 in0.0 mm 0.24 in6.1 mm
10:00 PM 28.9°F-1.7°C 28.2°F-2.1°C 97% 3.7 mph N6.0 kmh N 5.0 mph8.0 kmh 29.79 in1008.8 mb 0.00 in0.0 mm 0.00 in0.0 mm 0.24 in6.1 mm
10:15 PM 28.8°F-1.8°C 28.0°F-2.2°C 97% 2.9 mph NE4.7 kmh NE 4.0 mph6.4 kmh 29.79 in1008.8 mb 0.00 in0.0 mm 0.00 in0.0 mm 0.24 in6.1 mm
10:30 PM 28.6°F-1.9°C 27.8°F-2.3°C 97% 2.7 mph N4.3 kmh N 3.0 mph4.8 kmh 29.79 in1008.8 mb 0.00 in0.0 mm 0.00 in0.0 mm 0.24 in6.1 mm
10:45 PM 28.6°F-1.9°C 27.8°F-2.3°C 97% 2.0 mph N3.2 kmh N 3.0 mph4.8 kmh 29.79 in1008.8 mb 0.00 in0.0 mm 0.00 in0.0 mm 0.24 in6.1 mm
11:15 PM 28.4°F-2.0°C 27.7°F-2.4°C 97% 2.9 mph N4.7 kmh N 4.0 mph6.4 kmh 29.78 in1008.5 mb 0.00 in0.0 mm 0.00 in0.0 mm 0.24 in6.1 mm
11:30 PM 28.4°F-2.0°C 27.7°F-2.4°C 97% 1.6 mph N2.6 kmh N 2.0 mph3.2 kmh 29.78 in1008.5 mb 0.00 in0.0 mm 0.00 in0.0 mm 0.24 in6.1 mm
11:45 PM 28.2°F-2.1°C 27.5°F-2.5°C 97% 3.0 mph N4.8 kmh N 4.0 mph6.4 kmh 29.78 in1008.5 mb 0.00 in0.0 mm 0.00 in0.0 mm 0.24 in6.1 mm